sensor_id;sensor_type;location;lat;lon;timestamp;temperature;humidity
21061;DHT22;10689;50.836;3.266;2023-02-28T00:01:23;2.40;99.90
21061;DHT22;10689;50.836;3.266;2023-02-28T00:03:49;2.30;99.90
21061;DHT22;10689;50.836;3.266;2023-02-28T00:06:14;2.20;99.90
21061;DHT22;10689;50.836;3.266;2023-02-28T00:08:40;2.20;99.90
21061;DHT22;10689;50.836;3.266;2023-02-28T00:11:11;2.20;99.90
21061;DHT22;10689;50.836;3.266;2023-02-28T00:13:40;2.30;99.90
21061;DHT22;10689;50.836;3.266;2023-02-28T00:16:09;2.30;99.90
21061;DHT22;10689;50.836;3.266;2023-02-28T00:18:36;2.20;99.90
21061;DHT22;10689;50.836;3.266;2023-02-28T00:21:02;2.20;99.90
21061;DHT22;10689;50.836;3.266;2023-02-28T00:23:28;2.20;99.90
21061;DHT22;10689;50.836;3.266;2023-02-28T00:25:56;2.20;99.90
21061;DHT22;10689;50.836;3.266;2023-02-28T00:28:22;2.20;99.90
21061;DHT22;10689;50.836;3.266;2023-02-28T00:30:48;2.20;99.90
21061;DHT22;10689;50.836;3.266;2023-02-28T00:33:16;2.20;99.90
21061;DHT22;10689;50.836;3.266;2023-02-28T00:35:42;2.10;99.90
21061;DHT22;10689;50.836;3.266;2023-02-28T00:38:12;2.10;99.90
21061;DHT22;10689;50.836;3.266;2023-02-28T00:40:39;2.00;99.90
21061;DHT22;10689;50.836;3.266;2023-02-28T00:43:05;2.10;99.90
21061;DHT22;10689;50.836;3.266;2023-02-28T00:45:33;2.10;99.90
21061;DHT22;10689;50.836;3.266;2023-02-28T00:47:58;2.10;99.90
21061;DHT22;10689;50.836;3.266;2023-02-28T00:50:24;2.00;99.90
21061;DHT22;10689;50.836;3.266;2023-02-28T00:52:50;1.90;99.90
21061;DHT22;10689;50.836;3.266;2023-02-28T00:55:16;2.00;99.90
21061;DHT22;10689;50.836;3.266;2023-02-28T00:57:41;2.00;99.90
21061;DHT22;10689;50.836;3.266;2023-02-28T01:00:08;2.00;99.90
21061;DHT22;10689;50.836;3.266;2023-02-28T01:02:36;1.90;99.90
21061;DHT22;10689;50.836;3.266;2023-02-28T01:05:02;2.00;99.90
21061;DHT22;10689;50.836;3.266;2023-02-28T01:07:28;1.80;99.90
21061;DHT22;10689;50.836;3.266;2023-02-28T01:09:54;1.80;99.90
21061;DHT22;10689;50.836;3.266;2023-02-28T01:12:19;1.80;99.90
21061;DHT22;10689;50.836;3.266;2023-02-28T01:14:45;1.80;99.90
21061;DHT22;10689;50.836;3.266;2023-02-28T01:17:11;1.60;99.90
21061;DHT22;10689;50.836;3.266;2023-02-28T01:19:38;1.70;99.90
21061;DHT22;10689;50.836;3.266;2023-02-28T01:22:05;1.80;99.90
21061;DHT22;10689;50.836;3.266;2023-02-28T01:24:31;1.80;99.90
21061;DHT22;10689;50.836;3.266;2023-02-28T01:26:57;1.80;99.90
21061;DHT22;10689;50.836;3.266;2023-02-28T01:29:23;1.70;99.90
21061;DHT22;10689;50.836;3.266;2023-02-28T01:31:49;1.70;99.90
21061;DHT22;10689;50.836;3.266;2023-02-28T01:34:14;1.70;99.90
21061;DHT22;10689;50.836;3.266;2023-02-28T01:36:40;1.70;99.90
21061;DHT22;10689;50.836;3.266;2023-02-28T01:39:08;1.70;99.90
21061;DHT22;10689;50.836;3.266;2023-02-28T01:41:36;1.60;99.90
21061;DHT22;10689;50.836;3.266;2023-02-28T01:44:05;1.60;99.90
21061;DHT22;10689;50.836;3.266;2023-02-28T01:46:35;1.70;99.90
21061;DHT22;10689;50.836;3.266;2023-02-28T01:49:13;1.70;99.90
21061;DHT22;10689;50.836;3.266;2023-02-28T01:51:41;1.60;99.90
21061;DHT22;10689;50.836;3.266;2023-02-28T01:54:14;1.70;99.90
21061;DHT22;10689;50.836;3.266;2023-02-28T01:56:49;1.70;99.90
21061;DHT22;10689;50.836;3.266;2023-02-28T01:59:29;1.70;99.90
21061;DHT22;10689;50.836;3.266;2023-02-28T02:01:56;1.70;99.90
21061;DHT22;10689;50.836;3.266;2023-02-28T02:04:27;1.70;99.90
21061;DHT22;10689;50.836;3.266;2023-02-28T02:06:58;1.70;99.90
21061;DHT22;10689;50.836;3.266;2023-02-28T02:09:24;1.70;99.90
21061;DHT22;10689;50.836;3.266;2023-02-28T02:11:52;1.60;99.90
21061;DHT22;10689;50.836;3.266;2023-02-28T02:17:37;1.60;99.90
21061;DHT22;10689;50.836;3.266;2023-02-28T02:23:02;1.50;99.90
21061;DHT22;10689;50.836;3.266;2023-02-28T02:25:42;1.50;99.90
21061;DHT22;10689;50.836;3.266;2023-02-28T02:31:17;1.60;99.90
21061;DHT22;10689;50.836;3.266;2023-02-28T02:36:42;1.40;99.90
21061;DHT22;10689;50.836;3.266;2023-02-28T02:41:54;1.10;99.90
21061;DHT22;10689;50.836;3.266;2023-02-28T02:44:34;1.10;99.90
21061;DHT22;10689;50.836;3.266;2023-02-28T02:47:08;1.00;99.90
21061;DHT22;10689;50.836;3.266;2023-02-28T02:49:36;1.00;99.90
21061;DHT22;10689;50.836;3.266;2023-02-28T02:52:06;0.90;99.90
21061;DHT22;10689;50.836;3.266;2023-02-28T02:54:42;0.90;99.90
21061;DHT22;10689;50.836;3.266;2023-02-28T02:57:12;0.90;99.90
21061;DHT22;10689;50.836;3.266;2023-02-28T02:59:40;1.10;99.90
21061;DHT22;10689;50.836;3.266;2023-02-28T03:02:10;1.30;99.90
21061;DHT22;10689;50.836;3.266;2023-02-28T03:04:51;1.40;99.90
21061;DHT22;10689;50.836;3.266;2023-02-28T03:07:17;1.40;99.90
21061;DHT22;10689;50.836;3.266;2023-02-28T03:09:55;1.30;99.90
21061;DHT22;10689;50.836;3.266;2023-02-28T03:12:44;1.40;99.90
21061;DHT22;10689;50.836;3.266;2023-02-28T03:15:27;1.40;99.90
21061;DHT22;10689;50.836;3.266;2023-02-28T03:23:21;1.50;99.90
21061;DHT22;10689;50.836;3.266;2023-02-28T03:26:04;1.50;99.90
21061;DHT22;10689;50.836;3.266;2023-02-28T03:31:36;1.30;99.90
21061;DHT22;10689;50.836;3.266;2023-02-28T03:34:29;1.30;99.90
21061;DHT22;10689;50.836;3.266;2023-02-28T03:37:03;1.30;99.90
21061;DHT22;10689;50.836;3.266;2023-02-28T03:39:54;1.40;99.90
21061;DHT22;10689;50.836;3.266;2023-02-28T03:42:29;1.40;99.90
21061;DHT22;10689;50.836;3.266;2023-02-28T03:44:59;1.40;99.90
21061;DHT22;10689;50.836;3.266;2023-02-28T03:47:42;1.30;99.90
21061;DHT22;10689;50.836;3.266;2023-02-28T03:53:16;1.40;99.90
21061;DHT22;10689;50.836;3.266;2023-02-28T03:55:51;1.50;99.90
21061;DHT22;10689;50.836;3.266;2023-02-28T03:58:31;1.40;99.90
21061;DHT22;10689;50.836;3.266;2023-02-28T04:01:11;1.40;99.90
21061;DHT22;10689;50.836;3.266;2023-02-28T04:03:39;1.40;99.90
21061;DHT22;10689;50.836;3.266;2023-02-28T04:06:07;1.30;99.90
21061;DHT22;10689;50.836;3.266;2023-02-28T04:08:34;1.30;99.90
21061;DHT22;10689;50.836;3.266;2023-02-28T04:13:40;1.50;99.90
21061;DHT22;10689;50.836;3.266;2023-02-28T04:16:09;1.50;99.90
21061;DHT22;10689;50.836;3.266;2023-02-28T04:18:39;1.50;99.90
21061;DHT22;10689;50.836;3.266;2023-02-28T04:21:06;1.50;99.90
21061;DHT22;10689;50.836;3.266;2023-02-28T04:23:31;1.50;99.90
21061;DHT22;10689;50.836;3.266;2023-02-28T04:25:58;1.40;99.90
21061;DHT22;10689;50.836;3.266;2023-02-28T04:28:26;1.40;99.90
21061;DHT22;10689;50.836;3.266;2023-02-28T04:31:00;1.40;99.90
21061;DHT22;10689;50.836;3.266;2023-02-28T04:33:27;1.50;99.90
21061;DHT22;10689;50.836;3.266;2023-02-28T04:36:06;1.40;99.90
21061;DHT22;10689;50.836;3.266;2023-02-28T04:38:37;1.40;99.90
21061;DHT22;10689;50.836;3.266;2023-02-28T04:41:03;1.60;99.90
21061;DHT22;10689;50.836;3.266;2023-02-28T04:43:30;1.60;99.90
21061;DHT22;10689;50.836;3.266;2023-02-28T04:45:57;1.60;99.90
21061;DHT22;10689;50.836;3.266;2023-02-28T04:48:28;1.60;99.90
21061;DHT22;10689;50.836;3.266;2023-02-28T04:51:00;1.60;99.90
21061;DHT22;10689;50.836;3.266;2023-02-28T04:53:27;1.60;99.90
21061;DHT22;10689;50.836;3.266;2023-02-28T04:55:53;1.70;99.90
21061;DHT22;10689;50.836;3.266;2023-02-28T04:58:19;1.80;99.90
21061;DHT22;10689;50.836;3.266;2023-02-28T05:00:45;1.80;99.90
21061;DHT22;10689;50.836;3.266;2023-02-28T05:03:13;1.90;99.90
21061;DHT22;10689;50.836;3.266;2023-02-28T05:05:38;2.10;99.90
21061;DHT22;10689;50.836;3.266;2023-02-28T05:08:04;2.20;99.90
21061;DHT22;10689;50.836;3.266;2023-02-28T05:10:32;2.20;99.90
21061;DHT22;10689;50.836;3.266;2023-02-28T05:12:58;2.30;99.90
21061;DHT22;10689;50.836;3.266;2023-02-28T05:15:23;2.20;99.90
21061;DHT22;10689;50.836;3.266;2023-02-28T05:17:49;2.40;99.90
21061;DHT22;10689;50.836;3.266;2023-02-28T05:20:15;2.50;99.90
21061;DHT22;10689;50.836;3.266;2023-02-28T05:22:43;2.50;99.90
21061;DHT22;10689;50.836;3.266;2023-02-28T05:25:20;2.50;99.90
21061;DHT22;10689;50.836;3.266;2023-02-28T05:27:47;2.60;99.90
21061;DHT22;10689;50.836;3.266;2023-02-28T05:30:13;2.70;99.90
21061;DHT22;10689;50.836;3.266;2023-02-28T05:32:40;2.60;99.90
21061;DHT22;10689;50.836;3.266;2023-02-28T05:35:12;2.80;99.90
21061;DHT22;10689;50.836;3.266;2023-02-28T05:37:39;2.80;99.90
21061;DHT22;10689;50.836;3.266;2023-02-28T05:40:05;2.90;99.90
21061;DHT22;10689;50.836;3.266;2023-02-28T05:42:32;2.90;99.90
21061;DHT22;10689;50.836;3.266;2023-02-28T05:45:00;2.80;99.90
21061;DHT22;10689;50.836;3.266;2023-02-28T05:47:26;2.80;99.90
21061;DHT22;10689;50.836;3.266;2023-02-28T05:49:51;2.80;99.90
21061;DHT22;10689;50.836;3.266;2023-02-28T05:52:19;2.80;99.90
21061;DHT22;10689;50.836;3.266;2023-02-28T05:54:46;2.80;99.90
21061;DHT22;10689;50.836;3.266;2023-02-28T05:57:12;3.00;99.90
21061;DHT22;10689;50.836;3.266;2023-02-28T05:59:38;3.00;99.90
21061;DHT22;10689;50.836;3.266;2023-02-28T06:02:06;3.00;99.90
21061;DHT22;10689;50.836;3.266;2023-02-28T06:04:36;3.10;99.90
21061;DHT22;10689;50.836;3.266;2023-02-28T06:07:03;3.00;99.90
21061;DHT22;10689;50.836;3.266;2023-02-28T06:09:29;3.00;99.90
21061;DHT22;10689;50.836;3.266;2023-02-28T06:11:58;3.10;99.90
21061;DHT22;10689;50.836;3.266;2023-02-28T06:14:24;3.10;99.90
21061;DHT22;10689;50.836;3.266;2023-02-28T06:16:50;3.20;99.90
21061;DHT22;10689;50.836;3.266;2023-02-28T06:19:18;3.20;99.90
21061;DHT22;10689;50.836;3.266;2023-02-28T06:21:50;3.20;99.90
21061;DHT22;10689;50.836;3.266;2023-02-28T06:24:18;3.30;99.90
21061;DHT22;10689;50.836;3.266;2023-02-28T06:26:46;3.30;99.90
21061;DHT22;10689;50.836;3.266;2023-02-28T06:29:14;3.30;99.90
21061;DHT22;10689;50.836;3.266;2023-02-28T06:31:44;3.20;99.90
21061;DHT22;10689;50.836;3.266;2023-02-28T06:34:10;3.20;99.90
21061;DHT22;10689;50.836;3.266;2023-02-28T06:36:40;3.10;99.90
21061;DHT22;10689;50.836;3.266;2023-02-28T06:39:11;3.10;99.90
21061;DHT22;10689;50.836;3.266;2023-02-28T06:41:36;3.10;99.90
21061;DHT22;10689;50.836;3.266;2023-02-28T06:44:10;3.20;99.90
21061;DHT22;10689;50.836;3.266;2023-02-28T06:46:36;3.30;99.90
21061;DHT22;10689;50.836;3.266;2023-02-28T06:49:03;3.30;99.90
21061;DHT22;10689;50.836;3.266;2023-02-28T06:51:30;3.40;99.90
21061;DHT22;10689;50.836;3.266;2023-02-28T06:53:56;3.40;99.90
21061;DHT22;10689;50.836;3.266;2023-02-28T06:56:21;3.40;99.90
21061;DHT22;10689;50.836;3.266;2023-02-28T06:58:49;3.40;99.90
21061;DHT22;10689;50.836;3.266;2023-02-28T07:01:18;3.50;99.90
21061;DHT22;10689;50.836;3.266;2023-02-28T07:03:44;3.60;99.90
21061;DHT22;10689;50.836;3.266;2023-02-28T07:06:10;3.50;99.90
21061;DHT22;10689;50.836;3.266;2023-02-28T07:08:36;3.60;99.90
21061;DHT22;10689;50.836;3.266;2023-02-28T07:11:02;3.60;99.90
21061;DHT22;10689;50.836;3.266;2023-02-28T07:13:28;3.60;99.90
21061;DHT22;10689;50.836;3.266;2023-02-28T07:15:58;3.70;99.90
21061;DHT22;10689;50.836;3.266;2023-02-28T07:18:27;3.70;99.90
21061;DHT22;10689;50.836;3.266;2023-02-28T07:20:53;3.80;99.90
21061;DHT22;10689;50.836;3.266;2023-02-28T07:23:19;3.80;99.90
21061;DHT22;10689;50.836;3.266;2023-02-28T07:25:45;3.80;99.90
21061;DHT22;10689;50.836;3.266;2023-02-28T07:28:12;3.90;99.90
21061;DHT22;10689;50.836;3.266;2023-02-28T07:30:38;3.90;99.90
21061;DHT22;10689;50.836;3.266;2023-02-28T07:33:04;4.00;99.90
21061;DHT22;10689;50.836;3.266;2023-02-28T07:35:34;4.10;99.90
21061;DHT22;10689;50.836;3.266;2023-02-28T07:38:02;4.00;99.90
21061;DHT22;10689;50.836;3.266;2023-02-28T07:40:29;4.00;99.90
21061;DHT22;10689;50.836;3.266;2023-02-28T07:42:55;4.10;99.90
21061;DHT22;10689;50.836;3.266;2023-02-28T07:45:20;4.20;99.90
21061;DHT22;10689;50.836;3.266;2023-02-28T07:47:48;4.30;99.90
21061;DHT22;10689;50.836;3.266;2023-02-28T07:50:16;4.40;99.90
21061;DHT22;10689;50.836;3.266;2023-02-28T07:52:42;4.50;99.90
21061;DHT22;10689;50.836;3.266;2023-02-28T07:55:09;4.50;99.90
21061;DHT22;10689;50.836;3.266;2023-02-28T07:57:35;4.50;99.90
21061;DHT22;10689;50.836;3.266;2023-02-28T08:00:03;4.50;99.90
21061;DHT22;10689;50.836;3.266;2023-02-28T08:02:32;4.50;99.90
21061;DHT22;10689;50.836;3.266;2023-02-28T08:04:57;4.60;99.90
21061;DHT22;10689;50.836;3.266;2023-02-28T08:07:23;4.70;99.90
21061;DHT22;10689;50.836;3.266;2023-02-28T08:09:49;4.60;99.90
21061;DHT22;10689;50.836;3.266;2023-02-28T08:12:14;4.70;99.90
21061;DHT22;10689;50.836;3.266;2023-02-28T08:14:40;4.80;99.90
21061;DHT22;10689;50.836;3.266;2023-02-28T08:17:06;4.80;99.90
21061;DHT22;10689;50.836;3.266;2023-02-28T08:19:34;5.00;99.90
21061;DHT22;10689;50.836;3.266;2023-02-28T08:21:59;5.10;99.90
21061;DHT22;10689;50.836;3.266;2023-02-28T08:24:25;5.10;99.90
21061;DHT22;10689;50.836;3.266;2023-02-28T08:26:55;5.20;99.90
21061;DHT22;10689;50.836;3.266;2023-02-28T08:29:21;5.20;99.90
21061;DHT22;10689;50.836;3.266;2023-02-28T08:31:47;5.10;99.90
21061;DHT22;10689;50.836;3.266;2023-02-28T08:34:15;5.20;99.90
21061;DHT22;10689;50.836;3.266;2023-02-28T08:36:41;5.20;99.90
21061;DHT22;10689;50.836;3.266;2023-02-28T08:39:11;5.20;99.90
21061;DHT22;10689;50.836;3.266;2023-02-28T08:41:37;5.20;99.90
21061;DHT22;10689;50.836;3.266;2023-02-28T08:44:05;5.10;99.90
21061;DHT22;10689;50.836;3.266;2023-02-28T08:46:30;5.10;99.90
21061;DHT22;10689;50.836;3.266;2023-02-28T08:48:57;5.10;99.90
21061;DHT22;10689;50.836;3.266;2023-02-28T08:51:27;5.20;99.90
21061;DHT22;10689;50.836;3.266;2023-02-28T08:53:59;5.30;99.90
21061;DHT22;10689;50.836;3.266;2023-02-28T08:56:26;5.30;99.90
21061;DHT22;10689;50.836;3.266;2023-02-28T08:58:55;5.30;99.90
21061;DHT22;10689;50.836;3.266;2023-02-28T09:01:24;5.20;99.90
21061;DHT22;10689;50.836;3.266;2023-02-28T09:03:51;5.00;99.90
21061;DHT22;10689;50.836;3.266;2023-02-28T09:06:18;4.90;99.90
21061;DHT22;10689;50.836;3.266;2023-02-28T09:08:47;4.70;99.90
21061;DHT22;10689;50.836;3.266;2023-02-28T09:11:13;4.60;99.90
21061;DHT22;10689;50.836;3.266;2023-02-28T09:13:39;4.70;99.90
21061;DHT22;10689;50.836;3.266;2023-02-28T09:16:10;4.70;99.90
21061;DHT22;10689;50.836;3.266;2023-02-28T09:18:37;4.70;99.90
21061;DHT22;10689;50.836;3.266;2023-02-28T09:21:11;4.60;99.90
21061;DHT22;10689;50.836;3.266;2023-02-28T09:23:40;4.60;99.90
21061;DHT22;10689;50.836;3.266;2023-02-28T09:26:07;4.60;99.90
21061;DHT22;10689;50.836;3.266;2023-02-28T09:28:33;4.50;99.90
21061;DHT22;10689;50.836;3.266;2023-02-28T09:31:00;4.40;99.90
21061;DHT22;10689;50.836;3.266;2023-02-28T09:33:26;4.40;99.90
21061;DHT22;10689;50.836;3.266;2023-02-28T09:35:58;4.40;99.90
21061;DHT22;10689;50.836;3.266;2023-02-28T09:38:25;4.40;99.90
21061;DHT22;10689;50.836;3.266;2023-02-28T09:40:58;4.50;99.90
21061;DHT22;10689;50.836;3.266;2023-02-28T09:43:26;4.60;99.90
21061;DHT22;10689;50.836;3.266;2023-02-28T09:46:40;4.80;99.90
21061;DHT22;10689;50.836;3.266;2023-02-28T09:48:44;4.90;99.90
21061;DHT22;10689;50.836;3.266;2023-02-28T09:53:57;5.10;99.90
21061;DHT22;10689;50.836;3.266;2023-02-28T09:56:48;5.20;99.90
21061;DHT22;10689;50.836;3.266;2023-02-28T09:59:38;5.20;99.90
21061;DHT22;10689;50.836;3.266;2023-02-28T10:02:17;5.30;99.90
21061;DHT22;10689;50.836;3.266;2023-02-28T10:04:56;5.40;99.90
21061;DHT22;10689;50.836;3.266;2023-02-28T10:12:55;5.40;99.90
21061;DHT22;10689;50.836;3.266;2023-02-28T10:15:26;5.50;99.90
21061;DHT22;10689;50.836;3.266;2023-02-28T10:18:03;5.50;99.90
21061;DHT22;10689;50.836;3.266;2023-02-28T10:20:34;5.50;99.90
21061;DHT22;10689;50.836;3.266;2023-02-28T10:26:18;5.70;99.90
21061;DHT22;10689;50.836;3.266;2023-02-28T10:28:44;5.80;99.90
21061;DHT22;10689;50.836;3.266;2023-02-28T10:41:32;5.40;99.90
21061;DHT22;10689;50.836;3.266;2023-02-28T10:46:43;5.60;99.90
21061;DHT22;10689;50.836;3.266;2023-02-28T10:51:43;5.70;99.90
21061;DHT22;10689;50.836;3.266;2023-02-28T10:54:28;5.70;99.90
21061;DHT22;10689;50.836;3.266;2023-02-28T10:59:37;6.00;99.90
21061;DHT22;10689;50.836;3.266;2023-02-28T11:04:56;5.80;99.90
21061;DHT22;10689;50.836;3.266;2023-02-28T11:07:25;5.70;99.90
21061;DHT22;10689;50.836;3.266;2023-02-28T11:09:53;5.90;99.90
21061;DHT22;10689;50.836;3.266;2023-02-28T11:12:38;6.20;99.90
21061;DHT22;10689;50.836;3.266;2023-02-28T11:15:23;6.50;99.90
21061;DHT22;10689;50.836;3.266;2023-02-28T11:20:26;6.30;99.90
21061;DHT22;10689;50.836;3.266;2023-02-28T11:22:53;6.30;99.90
21061;DHT22;10689;50.836;3.266;2023-02-28T11:27:57;6.40;99.90
21061;DHT22;10689;50.836;3.266;2023-02-28T11:30:34;6.20;99.90
21061;DHT22;10689;50.836;3.266;2023-02-28T11:35:48;6.70;99.90
21061;DHT22;10689;50.836;3.266;2023-02-28T11:38:14;6.90;99.90
21061;DHT22;10689;50.836;3.266;2023-02-28T11:40:46;7.10;99.90
21061;DHT22;10689;50.836;3.266;2023-02-28T11:51:32;6.80;99.90
21061;DHT22;10689;50.836;3.266;2023-02-28T11:56:57;6.80;99.90
21061;DHT22;10689;50.836;3.266;2023-02-28T12:02:49;7.00;99.90
21061;DHT22;10689;50.836;3.266;2023-02-28T12:05:30;7.00;99.90
21061;DHT22;10689;50.836;3.266;2023-02-28T12:16:16;7.60;99.90
21061;DHT22;10689;50.836;3.266;2023-02-28T12:19:13;7.30;99.90
21061;DHT22;10689;50.836;3.266;2023-02-28T12:27:31;7.80;99.90
21061;DHT22;10689;50.836;3.266;2023-02-28T12:32:42;7.50;99.90
21061;DHT22;10689;50.836;3.266;2023-02-28T12:37:49;7.50;99.90
21061;DHT22;10689;50.836;3.266;2023-02-28T12:40:20;7.60;99.90
21061;DHT22;10689;50.836;3.266;2023-02-28T12:42:52;7.60;99.90
21061;DHT22;10689;50.836;3.266;2023-02-28T12:45:20;7.70;99.90
21061;DHT22;10689;50.836;3.266;2023-02-28T12:47:51;7.80;99.90
21061;DHT22;10689;50.836;3.266;2023-02-28T12:50:18;7.70;99.90
21061;DHT22;10689;50.836;3.266;2023-02-28T12:53:09;7.80;99.90
21061;DHT22;10689;50.836;3.266;2023-02-28T12:58:43;8.00;99.90
21061;DHT22;10689;50.836;3.266;2023-02-28T13:09:12;7.60;99.90
21061;DHT22;10689;50.836;3.266;2023-02-28T13:11:50;7.70;99.90
21061;DHT22;10689;50.836;3.266;2023-02-28T13:17:03;8.00;99.90
21061;DHT22;10689;50.836;3.266;2023-02-28T13:19:58;8.00;99.90
21061;DHT22;10689;50.836;3.266;2023-02-28T13:24:52;8.10;99.90
21061;DHT22;10689;50.836;3.266;2023-02-28T13:27:36;7.90;99.90
21061;DHT22;10689;50.836;3.266;2023-02-28T13:38:47;8.00;99.90
21061;DHT22;10689;50.836;3.266;2023-02-28T13:46:33;8.20;99.90
21061;DHT22;10689;50.836;3.266;2023-02-28T14:03:23;8.00;99.90
21061;DHT22;10689;50.836;3.266;2023-02-28T14:08:51;8.10;99.90
21061;DHT22;10689;50.836;3.266;2023-02-28T14:11:32;8.10;99.90
21061;DHT22;10689;50.836;3.266;2023-02-28T14:13:59;7.90;99.90
21061;DHT22;10689;50.836;3.266;2023-02-28T14:19:17;7.20;99.90
21061;DHT22;10689;50.836;3.266;2023-02-28T14:25:15;7.30;99.90
21061;DHT22;10689;50.836;3.266;2023-02-28T14:33:23;7.40;99.90
21061;DHT22;10689;50.836;3.266;2023-02-28T14:38:46;7.40;99.90
21061;DHT22;10689;50.836;3.266;2023-02-28T14:43:57;7.20;99.90
21061;DHT22;10689;50.836;3.266;2023-02-28T14:46:33;7.00;99.90
21061;DHT22;10689;50.836;3.266;2023-02-28T14:49:01;6.90;99.90
21061;DHT22;10689;50.836;3.266;2023-02-28T14:51:29;7.00;99.90
21061;DHT22;10689;50.836;3.266;2023-02-28T14:54:01;6.90;99.90
21061;DHT22;10689;50.836;3.266;2023-02-28T14:56:35;6.90;99.90
21061;DHT22;10689;50.836;3.266;2023-02-28T14:59:03;7.00;99.90
21061;DHT22;10689;50.836;3.266;2023-02-28T15:01:29;7.10;99.90
21061;DHT22;10689;50.836;3.266;2023-02-28T15:04:02;7.00;99.90
21061;DHT22;10689;50.836;3.266;2023-02-28T15:06:31;6.70;99.90
21061;DHT22;10689;50.836;3.266;2023-02-28T15:09:13;6.70;99.90
21061;DHT22;10689;50.836;3.266;2023-02-28T15:11:39;6.70;99.90
21061;DHT22;10689;50.836;3.266;2023-02-28T15:14:15;6.70;99.90
21061;DHT22;10689;50.836;3.266;2023-02-28T15:16:47;6.70;99.90
21061;DHT22;10689;50.836;3.266;2023-02-28T15:19:28;6.60;99.90
21061;DHT22;10689;50.836;3.266;2023-02-28T15:22:06;6.50;99.90
21061;DHT22;10689;50.836;3.266;2023-02-28T15:24:53;6.50;99.90
21061;DHT22;10689;50.836;3.266;2023-02-28T15:27:26;6.40;99.90
21061;DHT22;10689;50.836;3.266;2023-02-28T15:29:58;6.40;99.90
21061;DHT22;10689;50.836;3.266;2023-02-28T15:32:26;6.40;99.90
21061;DHT22;10689;50.836;3.266;2023-02-28T15:34:56;6.50;99.90
21061;DHT22;10689;50.836;3.266;2023-02-28T15:37:47;6.40;99.90
21061;DHT22;10689;50.836;3.266;2023-02-28T15:40:38;6.30;99.90
21061;DHT22;10689;50.836;3.266;2023-02-28T15:43:18;6.30;99.90
21061;DHT22;10689;50.836;3.266;2023-02-28T15:45:51;6.30;99.90
21061;DHT22;10689;50.836;3.266;2023-02-28T15:48:20;6.30;99.90
21061;DHT22;10689;50.836;3.266;2023-02-28T15:53:37;6.30;99.90
21061;DHT22;10689;50.836;3.266;2023-02-28T15:56:33;6.30;99.90
21061;DHT22;10689;50.836;3.266;2023-02-28T15:59:03;6.20;99.90
21061;DHT22;10689;50.836;3.266;2023-02-28T16:01:32;6.20;99.90
21061;DHT22;10689;50.836;3.266;2023-02-28T16:04:12;6.20;99.90
21061;DHT22;10689;50.836;3.266;2023-02-28T16:09:14;6.20;99.90
21061;DHT22;10689;50.836;3.266;2023-02-28T16:11:49;6.20;99.90
21061;DHT22;10689;50.836;3.266;2023-02-28T16:14:24;6.20;99.90
21061;DHT22;10689;50.836;3.266;2023-02-28T16:16:56;6.20;99.90
21061;DHT22;10689;50.836;3.266;2023-02-28T16:19:25;6.10;99.90
21061;DHT22;10689;50.836;3.266;2023-02-28T16:21:51;6.20;99.90
21061;DHT22;10689;50.836;3.266;2023-02-28T16:24:16;6.10;99.90
21061;DHT22;10689;50.836;3.266;2023-02-28T16:26:45;6.00;99.90
21061;DHT22;10689;50.836;3.266;2023-02-28T16:29:24;6.00;99.90
21061;DHT22;10689;50.836;3.266;2023-02-28T16:31:51;6.00;99.90
21061;DHT22;10689;50.836;3.266;2023-02-28T16:34:20;5.90;99.90
21061;DHT22;10689;50.836;3.266;2023-02-28T16:36:49;5.90;99.90
21061;DHT22;10689;50.836;3.266;2023-02-28T16:39:15;5.90;99.90
21061;DHT22;10689;50.836;3.266;2023-02-28T16:41:43;5.90;99.90
21061;DHT22;10689;50.836;3.266;2023-02-28T16:44:33;5.90;99.90
21061;DHT22;10689;50.836;3.266;2023-02-28T16:47:00;5.90;99.90
21061;DHT22;10689;50.836;3.266;2023-02-28T16:49:26;5.90;99.90
21061;DHT22;10689;50.836;3.266;2023-02-28T16:51:55;5.80;99.90
21061;DHT22;10689;50.836;3.266;2023-02-28T16:54:20;5.80;99.90
21061;DHT22;10689;50.836;3.266;2023-02-28T16:56:47;5.80;99.90
21061;DHT22;10689;50.836;3.266;2023-02-28T16:59:17;5.70;99.90
21061;DHT22;10689;50.836;3.266;2023-02-28T17:01:43;5.70;99.90
21061;DHT22;10689;50.836;3.266;2023-02-28T17:04:11;5.70;99.90
21061;DHT22;10689;50.836;3.266;2023-02-28T17:06:39;5.60;99.90
21061;DHT22;10689;50.836;3.266;2023-02-28T17:09:14;5.60;99.90
21061;DHT22;10689;50.836;3.266;2023-02-28T17:11:40;5.60;99.90
21061;DHT22;10689;50.836;3.266;2023-02-28T17:14:06;5.60;99.90
21061;DHT22;10689;50.836;3.266;2023-02-28T17:16:35;5.50;99.90
21061;DHT22;10689;50.836;3.266;2023-02-28T17:19:04;5.50;99.90
21061;DHT22;10689;50.836;3.266;2023-02-28T17:21:31;5.50;99.90
21061;DHT22;10689;50.836;3.266;2023-02-28T17:23:58;5.40;99.90
21061;DHT22;10689;50.836;3.266;2023-02-28T17:26:25;5.40;99.90
21061;DHT22;10689;50.836;3.266;2023-02-28T17:28:55;5.30;99.90
21061;DHT22;10689;50.836;3.266;2023-02-28T17:31:22;5.20;99.90
21061;DHT22;10689;50.836;3.266;2023-02-28T17:33:48;5.20;99.90
21061;DHT22;10689;50.836;3.266;2023-02-28T17:36:16;5.20;99.90
21061;DHT22;10689;50.836;3.266;2023-02-28T17:38:43;5.20;99.90
21061;DHT22;10689;50.836;3.266;2023-02-28T17:41:10;5.10;99.90
21061;DHT22;10689;50.836;3.266;2023-02-28T17:43:37;5.00;99.90
21061;DHT22;10689;50.836;3.266;2023-02-28T17:46:09;5.10;99.90
21061;DHT22;10689;50.836;3.266;2023-02-28T17:48:39;5.00;99.90
21061;DHT22;10689;50.836;3.266;2023-02-28T17:51:04;5.10;99.90
21061;DHT22;10689;50.836;3.266;2023-02-28T17:53:30;5.00;99.90
21061;DHT22;10689;50.836;3.266;2023-02-28T17:55:59;5.00;99.90
21061;DHT22;10689;50.836;3.266;2023-02-28T17:58:25;4.90;99.90
21061;DHT22;10689;50.836;3.266;2023-02-28T18:00:51;4.90;99.90
21061;DHT22;10689;50.836;3.266;2023-02-28T18:03:22;4.80;99.90
21061;DHT22;10689;50.836;3.266;2023-02-28T18:05:49;4.70;99.90
21061;DHT22;10689;50.836;3.266;2023-02-28T18:08:15;4.80;99.90
21061;DHT22;10689;50.836;3.266;2023-02-28T18:10:41;4.70;99.90
21061;DHT22;10689;50.836;3.266;2023-02-28T18:13:07;4.70;99.90
21061;DHT22;10689;50.836;3.266;2023-02-28T18:15:33;4.70;99.90
21061;DHT22;10689;50.836;3.266;2023-02-28T18:17:59;4.60;99.90
21061;DHT22;10689;50.836;3.266;2023-02-28T18:20:24;4.60;99.90
21061;DHT22;10689;50.836;3.266;2023-02-28T18:22:53;4.60;99.90
21061;DHT22;10689;50.836;3.266;2023-02-28T18:25:19;4.60;99.90
21061;DHT22;10689;50.836;3.266;2023-02-28T18:27:49;4.50;99.90
21061;DHT22;10689;50.836;3.266;2023-02-28T18:30:26;4.40;99.90
21061;DHT22;10689;50.836;3.266;2023-02-28T18:32:55;4.40;99.90
21061;DHT22;10689;50.836;3.266;2023-02-28T18:35:22;4.40;99.90
21061;DHT22;10689;50.836;3.266;2023-02-28T18:38:16;4.30;99.90
21061;DHT22;10689;50.836;3.266;2023-02-28T18:40:55;4.30;99.90
21061;DHT22;10689;50.836;3.266;2023-02-28T18:43:23;4.30;99.90
21061;DHT22;10689;50.836;3.266;2023-02-28T18:45:49;4.20;99.90
21061;DHT22;10689;50.836;3.266;2023-02-28T18:48:14;4.10;99.90
21061;DHT22;10689;50.836;3.266;2023-02-28T18:50:41;4.20;99.90
21061;DHT22;10689;50.836;3.266;2023-02-28T18:53:06;4.10;99.90
21061;DHT22;10689;50.836;3.266;2023-02-28T18:55:35;4.10;99.90